Архив погоды в Викулово

Метеограмма Викулово
Среда, 25 Апреля
Время местн. Темп Ветер Видим Явления Облачность нижн/средн/верх Атм. давл. Влжн Точка росы ВНГО R Сост. почвы Tg s
Напр Скр Прв ур.ст ур.м изм
14:00 +7.4° З 5 11 50 км - облачно с прояснениями 747 754 +0.7 36% -6.8° 1 км - - - -
11:00 +6.8° Ю-З 6 12 20 км - облачно с прояснениями 747 754 +0.3 39% -6.1° 1 км - - - -
08:00 +3.5° Ю-З 6 - 20 км - ясно 746 753 +0.8 56% -4.4° более 2.5 км 0 Влажная (без луж) - -
05:00 -0.1° Ю-З 2 - 20 км - ясно 745 753 +0.3 74% -4.2° более 2.5 км - - - -
02:00 +1.3° Ю,Ю-З 1 - 10 км - ясно 745 752 -0.1 68% -3.9° более 2.5 км - - - -
Вторник, 24 Апреля
Время местн. Темп Ветер Видим Явления Облачность нижн/средн/верх Атм. давл. Влжн Точка росы ВНГО R Сост. почвы Tg s
Напр Скр Прв ур.ст ур.м изм
23:00 +5.5° З 5 12 10 км - ясно 745 752 +1.4 61% -1.4° более 2.5 км - - - -
20:00 +10.6° З,Ю-З 4 - 10 км - переменная облачность 744 751 -0.2 43% -1.4° более 2.5 км 0 - - -
17:00 +13.8° Ю,Ю-З 6 12 10 км небо без изменений {дождь} облачно с прояснениями 744 751 -0.2 43% +1.3° 1 км - - - -
14:00 +13.8° Ю 7 12 20 км небо без изменений {дождь} преимущественно облачно 744 751 -0.4 45% +2° 1 км - - - -
11:00 +12.1° Ю 6 11 10 км слабый непрерывный дождь облачно 745 751 -0.8 58% +4.1° 1 км - - - -
08:00 +9.5° Ю 6 11 10 км - облачно 745 752 -0.7 62% +2.7° - 0 Сырая (есть малые или большие лужи) - -
05:00 +7.9° Ю,Ю-В 5 10 10 км - преимущественно облачно 746 753 -1.4 69% +2.6° более 2.5 км - - - -
02:00 +7.5° Ю,Ю-В 5 - 10 км - облачно 747 754 -1.3 70% +2.4° более 2.5 км - - - -
Понедельник, 23 Апреля
Время местн. Темп Ветер Видим Явления Облачность нижн/средн/верх Атм. давл. Влжн Точка росы ВНГО R Сост. почвы Tg s
Напр Скр Прв ур.ст ур.м изм
23:00 +7.3° Ю-В 4 - 10 км - облачно с прояснениями 749 756 -0.8 71% +2.4° - - - - -
20:00 +8.5° В,Ю-В 2 - 20 км - переменная облачность 749 756 -0.2 62% +1.6° более 2.5 км 0 - - -
17:00 +10.6° Ю-В 2 - 20 км - облачно с прояснениями 750 756 -0.3 56% +2.1° 1 км - - - -
14:00 +8.5° Ю-В 3 - 20 км - облачно 750 757 -0.4 58% +0.8° более 2.5 км - - - -
11:00 +4.6° В,Ю-В 3 - 20 км - облачно 750 757 -0.4 65% -1.4° - - - - -
08:00 +0.5° В,Ю-В 2 - 20 км - облачно 751 758 -0.4 76% -3.2° 1 км 0 Сырая (есть малые или большие лужи) -1° -
05:00 -0.8° В 3 - 20 км - облачно 751 758 -0.2 79% -4° - - - - -
02:00 +0.1° В,Ю-В 2 - 10 км - преимущественно облачно 751 758 -0.2 68% -5.1° более 2.5 км - - - -
Воскресенье, 22 Апреля
Время местн. Темп Ветер Видим Явления Облачность нижн/средн/верх Атм. давл. Влжн Точка росы ВНГО R Сост. почвы Tg s
Напр Скр Прв ур.ст ур.м изм
23:00 +0.2° В,Ю-В 2 - 10 км - переменная облачность 751 759 -0.2 61% -6.4° более 2.5 км - - - -
20:00 +2.9° В 2 - 10 км - облачно 752 759 +0.4 50% -6.6° более 2.5 км 0 - - -
17:00 +5.6° Ю 1 - 20 км - облачно 751 758 +0.3 37% -7.8° более 2.5 км - - - -
14:00 +4.4° В,Ю-В 1 - 20 км - переменная облачность 751 758 +0.6 45% -6.6° 1 км - - - -
11:00 +2.3° С 2 - 10 км - облачно с прояснениями 750 757 +1.4 55% -5.8° 1 км - - - -